Time;durP1;ratioP1;P1;durP2;ratioP2;P2;SDS_P1;SDS_P2;PMS_P1;PMS_P2;Temp;Humidity;BMP_temperature;BMP_pressure;BME280_temperature;BME280_humidity;BME280_pressure;Samples;Min_cycle;Max_cycle;Signal;HPM_P1;HPM_P2
2022/06/06 03:40:27;;;;;;;;;;;;;;;10.26;100.00;99608.81;6184806;23;19944;-89
2022/06/06 03:43:03;;;;;;;;;;;;;;;10.20;100.00;99603.81;6306590;22;20224;-91
2022/06/06 03:45:57;;;;;;;;;;;;;;;;;;;;;
2022/06/06 03:48:31;;;;;;;;;;;;;;;10.43;100.00;99613.41;6308085;22;19990;-89
2022/06/06 03:51:17;;;;;;;;;;;;;;;10.22;100.00;99605.44;6309615;22;19917;-90
2022/06/06 03:54:01;;;;;;;;;;;;;;;;;;;;;
2022/06/06 03:56:39;;;;;;;;;;;;;;;10.46;100.00;99607.97;6311120;22;19998;-90
2022/06/06 03:59:15;;;;;;;;;;;;;;;10.28;100.00;99606.97;6281818;22;19938;-90
2022/06/06 04:01:44;;;;;;;;;;;;;;;10.58;100.00;99603.88;6282294;22;19915;-91
2022/06/06 04:04:13;;;;;;;;;;;;;;;10.40;100.00;99611.72;6281043;22;20235;-90
2022/06/06 04:06:39;;;;;;;;;;;;;;;10.47;100.00;99604.41;6283898;22;19942;-90
2022/06/06 04:09:05;;;;;;;;;;;;;;;10.61;100.00;99604.63;6309526;22;19922;-90
2022/06/06 04:11:30;;;;;;;;;;;;;;;10.42;100.00;99609.03;6282727;22;19958;-91
2022/06/06 04:13:55;;;;;;;;;;;;;;;10.72;100.00;99605.00;6282179;22;19911;-90
2022/06/06 04:16:24;;;;;;;;;;;;;;;10.54;100.00;99619.06;6282238;22;19919;-90
2022/06/06 04:19:11;;;;;;;;;;;;;;;10.65;100.00;99621.25;6280930;22;19915;-90
2022/06/06 04:21:55;;;;;;;;;;;;;;;10.76;100.00;99623.41;6308493;22;19917;-90
2022/06/06 04:24:39;;;;;;;;;;;;;;;10.60;100.00;99618.78;6280439;22;20327;-90
2022/06/06 04:27:23;;;;;;;;;;;;;;;10.56;100.00;99621.66;6307665;22;19921;-90
2022/06/06 04:29:57;;;;;;;;;;;;;;;10.80;100.00;99624.97;6280240;22;19990;-91
2022/06/06 04:32:22;;;;;;;;;;;;;;;10.59;100.00;99619.72;6278826;22;19974;-91
2022/06/06 04:34:49;;;;;;;;;;;;;;;10.64;100.00;99617.75;6280577;22;19911;-91
2022/06/06 04:37:28;;;;;;;;;;;;;;;10.73;100.00;99614.63;6307966;22;19915;-91
2022/06/06 04:40:12;;;;;;;;;;;;;;;10.56;100.00;99616.34;6281065;22;20052;-90
2022/06/06 04:43:06;;;;;;;;;;;;;;;10.75;100.00;99621.66;6311752;22;19911;-92
2022/06/06 04:45:38;;;;;;;;;;;;;;;10.74;100.00;99631.41;6302536;22;19911;-93
2022/06/06 12:59:51;;;;;;;;;;;;;;;10.20;100.00;99582.63;6340933;22;19921;-93
2022/06/06 13:02:51;;;;;;;;;;;;;;;10.09;100.00;99591.03;6319444;22;19922;-90
2022/06/06 13:05:38;;;;;;;;;;;;;;;10.36;100.00;99587.19;6319116;22;19910;-92
2022/06/06 13:08:06;;;;;;;;;;;;;;;10.25;100.00;99597.38;6344827;22;19911;-92
2022/06/06 13:10:48;;;;;;;;;;;;;;;10.15;100.00;99604.00;6314601;22;19910;-92
2022/06/06 13:13:34;;;;;;;;;;;;;;;10.39;100.00;99587.97;6340900;22;19976;-91
2022/06/06 13:16:07;;;;;;;;;;;;;;;10.23;100.00;99593.94;6314160;22;19989;-93
2022/06/06 13:18:51;;;;;;;;;;;;;;;10.27;100.00;99592.84;6273622;22;19911;-91
2022/06/06 13:21:32;;;;;;;;;;;;;;;10.36;100.00;99591.63;6274753;22;19912;-91
2022/06/06 13:24:17;;;;;;;;;;;;;;;10.18;100.00;99588.00;6274171;22;20315;-93
2022/06/06 13:26:43;;;;;;;;;;;;;;;10.41;100.00;99588.78;6272479;22;19911;-91
2022/06/06 13:29:22;;;;;;;;;;;;;;;10.32;100.00;99588.28;6249509;22;19938;-91
2022/06/06 13:31:54;;;;;;;;;;;;;;;10.20;100.00;99591.44;6274595;22;19911;-90
2022/06/06 13:34:31;;;;;;;;;;;;;;;10.46;100.00;99597.38;6247202;22;19911;-90
2022/06/06 13:36:57;;;;;;;;;;;;;;;10.24;100.00;99585.03;6274573;22;19919;-94
2022/06/06 13:39:25;;;;;;;;;;;;;;;10.46;100.00;99584.13;6248956;22;19915;-95
2022/06/06 13:41:54;;;;;;;;;;;;;;;10.34;100.00;99585.56;6274293;22;19912;-96
2022/06/06 13:44:22;;;;;;;;;;;;;;;10.15;100.00;99588.97;6314167;22;19917;-90
2022/06/06 13:47:13;;;;;;;;;;;;;;;10.42;100.00;99583.41;6314415;22;19983;-93
2022/06/06 13:49:59;;;;;;;;;;;;;;;10.31;100.00;99586.50;6340875;22;19910;-91
2022/06/06 13:52:50;;;;;;;;;;;;;;;10.32;100.00;99593.56;6324969;22;19994;-91
2022/06/06 13:55:28;;;;;;;;;;;;;;;10.42;100.00;99595.78;6305182;22;19918;-93
2022/06/06 13:58:13;;;;;;;;;;;;;;;10.25;100.00;99597.38;6337702;22;20021;-93
2022/06/06 14:00:45;;;;;;;;;;;;;;;10.32;100.00;99601.50;6304744;22;19910;-91
2022/06/06 14:03:11;;;;;;;;;;;;;;;10.25;100.00;99593.88;6271351;22;20006;-92
2022/06/06 14:05:36;;;;;;;;;;;;;;;10.11;100.00;99597.13;6248914;22;20005;-90
2022/06/06 14:08:09;;;;;;;;;;;;;;;10.39;100.00;99606.50;6249969;22;19915;-92
2022/06/06 14:10:39;;;;;;;;;;;;;;;10.05;100.00;99602.69;6277421;22;19969;-91
2022/06/06 14:13:17;;;;;;;;;;;;;;;10.17;100.00;99596.84;6250704;22;20216;-91
2022/06/06 14:15:47;;;;;;;;;;;;;;;10.16;100.00;99603.94;6278764;22;19907;-94
2022/06/06 14:18:17;;;;;;;;;;;;;;;9.96;100.00;99604.81;6278440;22;20213;-91
2022/06/06 14:20:48;;;;;;;;;;;;;;;10.17;100.00;99599.50;6277658;22;19907;-90
2022/06/06 14:23:30;;;;;;;;;;;;;;;9.93;100.00;99606.72;6251032;22;19919;-90
2022/06/06 14:25:57;;;;;;;;;;;;;;;10.19;100.00;99602.94;6249997;22;20030;-89
2022/06/06 14:28:30;;;;;;;;;;;;;;;10.03;100.00;99592.16;6277594;22;19911;-94
2022/06/06 14:30:56;;;;;;;;;;;;;;;10.04;100.00;99598.34;6281311;22;20184;-91
2022/06/06 14:33:23;;;;;;;;;;;;;;;10.09;100.00;99607.78;6252142;22;20666;-93
2022/06/06 14:36:10;;;;;;;;;;;;;;;9.87;100.00;99599.91;6278973;22;19911;-91
2022/06/06 14:38:38;;;;;;;;;;;;;;;10.23;100.00;99601.88;6278013;22;19933;-93
2022/06/06 14:41:08;;;;;;;;;;;;;;;10.04;100.00;99608.91;6277502;22;20289;-93
2022/06/06 14:43:54;;;;;;;;;;;;;;;10.06;100.00;99607.06;6279638;22;20311;-95
2022/06/06 14:46:20;;;;;;;;;;;;;;;10.20;100.00;99601.16;6231389;22;19915;-93
2022/06/06 14:49:03;;;;;;;;;;;;;;;9.99;100.00;99602.03;6280689;22;19911;-95
2022/06/06 14:51:41;;;;;;;;;;;;;;;10.25;100.00;99609.75;6281612;22;19930;-90
2022/06/06 14:54:08;;;;;;;;;;;;;;;10.19;100.00;99600.28;6280768;22;19922;-92
2022/06/06 14:56:36;;;;;;;;;;;;;;;10.06;100.00;99591.19;6278908;22;20315;-93
2022/06/06 14:59:11;;;;;;;;;;;;;;;10.21;100.00;99595.81;6253862;22;19911;-93
2022/06/06 15:01:36;;;;;;;;;;;;;;;10.02;100.00;99593.09;6280223;22;19914;-91
2022/06/06 15:04:16;;;;;;;;;;;;;;;10.29;100.00;99592.78;6279687;22;20327;-94
2022/06/06 15:07:07;;;;;;;;;;;;;;;9.98;100.00;99595.00;6277022;22;19947;-90
2022/06/06 15:09:38;;;;;;;;;;;;;;;9.93;100.00;99594.34;6245270;22;19911;-94
2022/06/06 15:12:05;;;;;;;;;;;;;;;10.20;100.00;99594.06;6248518;22;20361;-92
2022/06/06 15:14:34;;;;;;;;;;;;;;;9.91;100.00;99598.00;6249836;22;20006;-94
2022/06/06 15:17:02;;;;;;;;;;;;;;;10.21;100.00;99590.50;6249615;22;19923;-93
2022/06/06 15:19:43;;;;;;;;;;;;;;;10.06;100.00;99593.81;6279415;22;19922;-93
2022/06/06 15:22:13;;;;;;;;;;;;;;;10.02;100.00;99587.81;6252891;22;19907;-94
2022/06/06 15:24:43;;;;;;;;;;;;;;;10.21;100.00;99590.50;6250910;22;19911;-94
2022/06/06 15:27:27;;;;;;;;;;;;;;;10.02;100.00;99585.16;6275010;22;19911;-94
2022/06/06 15:29:58;;;;;;;;;;;;;;;10.22;100.00;99581.63;6276521;22;19918;-91
2022/06/06 15:32:28;;;;;;;;;;;;;;;10.06;100.00;99585.88;6276011;22;19911;-93
2022/06/06 15:34:54;;;;;;;;;;;;;;;9.98;100.00;99583.56;6275905;22;19915;-93
2022/06/06 15:37:38;;;;;;;;;;;;;;;10.18;100.00;99580.06;6276194;22;19946;-94
2022/06/06 15:40:09;;;;;;;;;;;;;;;9.99;100.00;99585.28;6248508;22;19911;-92
2022/06/06 15:42:39;;;;;;;;;;;;;;;10.20;100.00;99575.53;6248613;22;19911;-91
2022/06/06 15:48:26;;;;;;;;;;;;;;;9.97;100.00;99576.53;6276418;22;19961;-92
2022/06/06 15:50:56;;;;;;;;;;;;;;;10.18;100.00;99570.31;6275858;22;19911;-93
2022/06/06 15:53:28;;;;;;;;;;;;;;;10.00;100.00;99572.00;6250007;22;19915;-92
2022/06/06 15:56:07;;;;;;;;;;;;;;;9.94;100.00;99566.09;6248442;22;20315;-94
2022/06/06 15:58:51;;;;;;;;;;;;;;;10.16;100.00;99566.88;6249223;22;19935;-92
2022/06/06 16:01:31;;;;;;;;;;;;;;;10.03;100.00;99560.41;6277414;22;19938;-94
2022/06/06 16:04:15;;;;;;;;;;;;;;;;;;;;;
2022/06/06 16:06:47;;;;;;;;;;;;;;;10.22;100.00;99563.09;6277392;22;20014;-91
2022/06/06 16:09:18;;;;;;;;;;;;;;;10.06;100.00;99551.47;6276766;22;19911;-92
2022/06/06 16:11:43;;;;;;;;;;;;;;;10.37;100.00;99558.94;6275535;22;19922;-92
2022/06/06 16:14:32;;;;;;;;;;;;;;;10.10;100.00;99559.22;6249886;22;19911;-91
2022/06/06 16:16:59;;;;;;;;;;;;;;;10.31;100.00;99546.78;6276195;22;20362;-95
2022/06/06 16:19:40;;;;;;;;;;;;;;;10.30;100.00;99546.84;6277326;22;19911;-89
2022/06/06 16:25:28;;;;;;;;;;;;;;;10.43;100.00;99545.38;6154480;23;19913;-93
2022/06/06 16:28:25;;;;;;;;;;;;;;;10.29;100.00;99551.31;6237907;22;19934;-93
2022/06/06 16:30:52;;;;;;;;;;;;;;;10.24;100.00;99552.41;6243315;22;19935;-92
2022/06/06 16:33:22;;;;;;;;;;;;;;;10.42;100.00;99545.44;6251177;22;19986;-91
2022/06/06 16:35:56;;;;;;;;;;;;;;;10.16;100.00;99545.69;6277763;22;19911;-94
2022/06/06 16:50:29;;;;;;;;;;;;;;;10.32;100.00;99543.25;6309106;22;19922;-93
2022/06/06 16:53:11;;;;;;;;;;;;;;;10.20;100.00;99551.72;6280971;22;19967;-92
2022/06/06 16:56:17;;;;;;;;;;;;;;;10.42;100.00;99540.16;6282593;22;20381;-93
2022/06/06 16:58:59;;;;;;;;;;;;;;;10.26;100.00;99545.25;6308653;22;19985;-90
2022/06/06 17:04:23;;;;;;;;;;;;;;;10.42;100.00;99540.16;6298821;22;19911;-91
2022/06/06 17:09:53;;;;;;;;;;;;;;;10.31;100.00;99543.28;6309070;22;19918;-92
2022/06/06 17:12:27;;;;;;;;;;;;;;;10.35;100.00;99543.13;6308462;22;20327;-94
2022/06/06 17:15:13;;;;;;;;;;;;;;;10.24;100.00;99540.03;6282027;22;19918;-95
2022/06/06 17:17:48;;;;;;;;;;;;;;;10.50;100.00;99540.69;6310693;22;19961;-91
2022/06/06 17:20:38;;;;;;;;;;;;;;;10.36;100.00;99546.59;6283012;22;19910;-89
2022/06/06 17:23:12;;;;;;;;;;;;;;;10.24;100.00;99547.13;6282958;22;19918;-93
2022/06/06 17:25:45;;;;;;;;;;;;;;;10.47;100.00;99544.31;6310006;22;19944;-94
2022/06/06 17:28:32;;;;;;;;;;;;;;;10.27;100.00;99542.53;6310784;22;19915;-95
2022/06/06 17:31:10;;;;;;;;;;;;;;;10.37;100.00;99540.41;6283681;22;20014;-92
2022/06/06 17:36:51;;;;;;;;;;;;;;;10.25;100.00;99549.72;6309422;22;19930;-92
2022/06/06 17:42:06;;;;;;;;;;;;;;;10.35;100.00;99545.75;6327745;22;19946;-94
2022/06/06 17:44:43;;;;;;;;;;;;;;;10.28;100.00;99549.56;6313881;22;20334;-91
2022/06/06 17:47:12;;;;;;;;;;;;;;;10.46;100.00;99547.03;6311997;22;19937;-94
2022/06/06 17:49:42;;;;;;;;;;;;;;;10.25;100.00;99551.50;6311449;22;20009;-93
2022/06/06 17:52:17;;;;;;;;;;;;;;;10.53;100.00;99549.34;6340180;22;19918;-94
2022/06/06 17:55:06;;;;;;;;;;;;;;;10.39;100.00;99556.19;6340585;22;20257;-91
2022/06/06 17:58:16;;;;;;;;;;;;;;;;;;;;;
2022/06/06 18:00:50;;;;;;;;;;;;;;;10.53;100.00;99553.78;6339669;22;20393;-91
2022/06/06 18:03:38;;;;;;;;;;;;;;;10.36;100.00;99557.22;6338990;22;19941;-90
2022/06/06 18:06:22;;;;;;;;;;;;;;;10.35;100.00;99547.53;6311381;22;20349;-90
2022/06/06 18:08:57;;;;;;;;;;;;;;;10.43;100.00;99561.28;6312170;22;20289;-89
2022/06/06 18:14:53;;;;;;;;;;;;;;;10.29;100.00;99558.38;6319388;22;19968;-91
2022/06/06 18:20:33;;;;;;;;;;;;;;;10.22;100.00;99559.59;6301966;22;20153;-92
2022/06/06 18:23:07;;;;;;;;;;;;;;;10.30;100.00;99560.94;6312052;22;19917;-90
2022/06/06 18:25:40;;;;;;;;;;;;;;;10.28;100.00;99568.09;6339926;22;19938;-92
2022/06/06 18:28:07;;;;;;;;;;;;;;;10.11;100.00;99571.50;6309343;22;19954;-92
2022/06/06 18:30:34;;;;;;;;;;;;;;;10.34;100.00;99567.88;6338734;22;19910;-94
2022/06/06 18:33:01;;;;;;;;;;;;;;;10.15;100.00;99566.94;6338289;22;20338;-92
2022/06/06 18:35:29;;;;;;;;;;;;;;;10.41;100.00;99564.94;6338877;22;19911;-94
2022/06/06 18:37:58;;;;;;;;;;;;;;;10.21;100.00;99561.38;6339204;22;19944;-89
2022/06/06 18:40:33;;;;;;;;;;;;;;;10.25;100.00;99559.44;6338127;22;20326;-89
2022/06/06 18:42:59;;;;;;;;;;;;;;;10.28;100.00;99560.16;6337230;22;19918;-90
2022/06/06 18:45:33;;;;;;;;;;;;;;;10.05;100.00;99562.97;6338270;22;19914;-93
2022/06/06 18:47:59;;;;;;;;;;;;;;;10.37;100.00;99564.22;6311429;22;19914;-93
2022/06/06 18:50:29;;;;;;;;;;;;;;;10.13;100.00;99571.44;6311463;22;19911;-90
2022/06/06 18:53:07;;;;;;;;;;;;;;;10.36;100.00;99568.66;6310014;22;20346;-93
2022/06/06 18:55:34;;;;;;;;;;;;;;;10.24;100.00;99573.59;6339089;22;20379;-93
2022/06/06 18:58:06;;;;;;;;;;;;;;;10.09;100.00;99569.88;6309779;22;19910;-92
2022/06/06 19:00:32;;;;;;;;;;;;;;;10.25;100.00;99570.88;6339648;22;19930;-93
2022/06/06 19:02:59;;;;;;;;;;;;;;;9.97;100.00;99569.47;6311679;22;19918;-90
2022/06/06 19:05:29;;;;;;;;;;;;;;;10.28;100.00;99567.25;6339908;22;19917;-93
2022/06/06 19:07:54;;;;;;;;;;;;;;;10.04;100.00;99566.56;6339676;22;19922;-89
2022/06/06 19:10:27;;;;;;;;;;;;;;;10.20;100.00;99572.88;6339291;22;19914;-94
2022/06/06 19:12:55;;;;;;;;;;;;;;;10.13;100.00;99569.66;6337646;22;19911;-92
2022/06/06 19:18:00;;;;;;;;;;;;;;;10.17;100.00;99576.53;6308681;22;19915;-90
2022/06/06 19:21:01;;;;;;;;;;;;;;;9.98;100.00;99572.97;6260327;22;20226;-92
2022/06/06 19:23:29;;;;;;;;;;;;;;;10.13;100.00;99576.72;6263269;22;19915;-92
2022/06/06 19:25:57;;;;;;;;;;;;;;;10.12;100.00;99575.03;6313439;22;19918;-93
2022/06/06 19:28:28;;;;;;;;;;;;;;;9.91;100.00;99577.69;6340016;22;19911;-90
2022/06/06 19:30:54;;;;;;;;;;;;;;;10.16;100.00;99582.78;6312581;22;19911;-93
2022/06/06 19:33:21;;;;;;;;;;;;;;;9.91;100.00;99585.63;6313293;22;19996;-91
2022/06/06 19:38:20;;;;;;;;;;;;;;;10.05;100.00;99584.16;6258813;22;19951;-94
2022/06/06 19:40:52;;;;;;;;;;;;;;;10.10;100.00;99583.03;6221475;23;19912;-93
2022/06/06 19:43:18;;;;;;;;;;;;;;;10.09;100.00;99591.91;6220229;23;19935;-92
2022/06/06 19:45:59;;;;;;;;;;;;;;;9.90;100.00;99583.91;6247319;23;19916;-92
2022/06/06 19:48:45;;;;;;;;;;;;;;;10.15;100.00;99586.34;6221257;23;19911;-92
2022/06/06 19:51:20;;;;;;;;;;;;;;;9.96;100.00;99582.78;6248335;23;19912;-92
2022/06/06 19:53:48;;;;;;;;;;;;;;;9.94;100.00;99588.13;6249464;23;19932;-95
2022/06/06 19:56:33;;;;;;;;;;;;;;;10.09;100.00;99583.94;6248481;23;19911;-91
2022/06/06 19:58:59;;;;;;;;;;;;;;;9.86;100.00;99590.25;6250397;23;19911;-92
2022/06/06 20:01:26;;;;;;;;;;;;;;;10.14;100.00;99583.75;6248702;23;19912;-91
2022/06/06 20:04:00;;;;;;;;;;;;;;;9.94;100.00;99588.13;6248429;23;19994;-89
2022/06/06 20:06:40;;;;;;;;;;;;;;;9.99;100.00;99583.50;6222250;23;19966;-92
2022/06/06 20:09:10;;;;;;;;;;;;;;;10.23;100.00;99580.69;6249055;23;20319;-91
2022/06/06 20:11:42;;;;;;;;;;;;;;;9.74;100.00;99580.19;6245587;23;20323;-91
2022/06/06 20:14:19;;;;;;;;;;;;;;;9.70;100.00;99589.19;6246837;23;20217;-94
2022/06/06 20:16:47;;;;;;;;;;;;;;;9.41;100.00;99583.31;6247331;23;19912;-92
2022/06/06 20:19:18;;;;;;;;;;;;;;;9.41;100.00;99580.69;6246904;23;19923;-91
2022/06/06 20:21:54;;;;;;;;;;;;;;;9.31;100.00;99582.00;6221235;23;19938;-91
2022/06/06 20:24:41;;;;;;;;;;;;;;;9.18;100.00;99581.63;6248075;23;19987;-93
2022/06/06 20:27:14;;;;;;;;;;;;;;;9.30;100.00;99585.53;6220578;23;19918;-89
2022/06/06 20:29:39;;;;;;;;;;;;;;;9.07;100.00;99592.63;6221881;23;19918;-89
2022/06/06 20:32:20;;;;;;;;;;;;;;;9.35;100.00;99583.56;6248955;23;19939;-93
2022/06/06 20:34:47;;;;;;;;;;;;;;;9.14;100.00;99588.81;6222227;23;19912;-89
2022/06/06 20:37:15;;;;;;;;;;;;;;;9.17;100.00;99583.38;6230107;22;19972;-94
2022/06/06 20:39:45;;;;;;;;;;;;;;;9.19;100.00;99584.22;6280289;22;20311;-92
2022/06/06 20:42:16;;;;;;;;;;;;;;;8.99;100.00;99579.72;6277334;22;19911;-94
2022/06/06 20:44:46;;;;;;;;;;;;;;;9.22;100.00;99578.81;6278925;22;19915;-93
2022/06/06 20:47:17;;;;;;;;;;;;;;;9.01;100.00;99583.16;6250741;22;20311;-90
2022/06/06 20:49:48;;;;;;;;;;;;;;;9.17;100.00;99582.53;6275938;22;19911;-92
2022/06/06 20:52:29;;;;;;;;;;;;;;;9.01;100.00;99585.78;6276772;22;19916;-91
2022/06/06 20:54:56;;;;;;;;;;;;;;;8.87;100.00;99585.47;6250221;22;19964;-93
2022/06/06 20:57:30;;;;;;;;;;;;;;;9.07;100.00;99580.25;6276712;22;20382;-88
2022/06/06 20:59:56;;;;;;;;;;;;;;;8.82;100.00;99590.97;6277263;22;19915;-93
2022/06/06 21:02:21;;;;;;;;;;;;;;;9.17;100.00;99580.75;6277532;22;19918;-89
2022/06/06 21:04:47;;;;;;;;;;;;;;;8.91;100.00;99577.38;6250317;22;19915;-91
2022/06/06 21:07:19;;;;;;;;;;;;;;;9.14;100.00;99578.22;6277286;22;19912;-89
2022/06/06 21:09:44;;;;;;;;;;;;;;;9.00;100.00;99588.50;6250083;22;19911;-91
2022/06/06 21:12:12;;;;;;;;;;;;;;;8.94;100.00;99583.47;6275637;22;19926;-94
2022/06/06 21:14:38;;;;;;;;;;;;;;;9.06;100.00;99585.59;6277166;22;19911;-93
2022/06/06 21:17:04;;;;;;;;;;;;;;;8.88;100.00;99585.41;6277367;22;19915;-92
2022/06/06 21:19:29;;;;;;;;;;;;;;;9.15;100.00;99576.47;6277658;22;19916;-92
2022/06/06 21:21:58;;;;;;;;;;;;;;;8.89;100.00;99584.50;6250199;22;19921;-94
2022/06/06 21:24:27;;;;;;;;;;;;;;;9.22;100.00;99578.81;6277647;22;20436;-90
2022/06/06 21:26:52;;;;;;;;;;;;;;;9.08;100.00;99581.16;6276485;22;19912;-93
2022/06/06 21:29:17;;;;;;;;;;;;;;;9.17;100.00;99580.75;6250347;22;19922;-89
2022/06/06 21:31:43;;;;;;;;;;;;;;;9.11;100.00;99581.03;6277089;22;20377;-94
2022/06/06 21:34:08;;;;;;;;;;;;;;;9.00;100.00;99580.56;6276901;22;20155;-94
2022/06/06 21:36:33;;;;;;;;;;;;;;;9.24;100.00;99578.75;6276758;22;19915;-94
2022/06/06 21:38:59;;;;;;;;;;;;;;;9.03;100.00;99578.69;6277117;22;19919;-92
2022/06/06 21:41:24;;;;;;;;;;;;;;;9.34;100.00;99580.06;6275283;22;19916;-94
2022/06/06 21:43:50;;;;;;;;;;;;;;;9.10;100.00;99579.28;6277529;22;19911;-93
2022/06/06 21:46:17;;;;;;;;;;;;;;;9.31;100.00;99574.91;6249849;22;20243;-90
2022/06/06 21:48:42;;;;;;;;;;;;;;;9.23;100.00;99580.50;6250121;22;19953;-90
2022/06/06 21:53:57;;;;;;;;;;;;;;;9.32;100.00;99574.00;6277311;22;20058;-90
2022/06/06 21:56:23;;;;;;;;;;;;;;;9.07;100.00;99579.41;6248796;22;19929;-91
2022/06/06 21:58:48;;;;;;;;;;;;;;;9.38;100.00;99579.03;6277937;22;19989;-95
2022/06/06 22:01:13;;;;;;;;;;;;;;;9.08;100.00;99582.00;6278571;22;19919;-93
2022/06/06 22:03:39;;;;;;;;;;;;;;;9.36;100.00;99578.22;6277865;22;19915;-92
2022/06/06 22:06:04;;;;;;;;;;;;;;;9.12;100.00;99576.59;6277904;22;19915;-90
2022/06/06 22:08:29;;;;;;;;;;;;;;;9.27;100.00;99574.19;6277614;22;19919;-95
2022/06/06 22:10:55;;;;;;;;;;;;;;;9.19;100.00;99573.63;6251339;22;19992;-92
2022/06/06 22:13:20;;;;;;;;;;;;;;;9.17;100.00;99578.09;6275549;22;19916;-91
2022/06/06 22:15:45;;;;;;;;;;;;;;;9.25;100.00;99581.31;6275877;22;19998;-89
2022/06/06 22:18:11;;;;;;;;;;;;;;;9.03;100.00;99583.09;6276790;22;19915;-89
2022/06/06 22:20:36;;;;;;;;;;;;;;;9.25;100.00;99576.03;6249770;22;19990;-89
2022/06/06 22:23:01;;;;;;;;;;;;;;;8.96;100.00;99586.91;6276664;22;19915;-90
2022/06/06 22:25:27;;;;;;;;;;;;;;;9.28;100.00;99575.03;6276231;22;19986;-89
2022/06/06 22:27:52;;;;;;;;;;;;;;;9.00;100.00;99583.19;6275458;22;19916;-93
2022/06/06 22:30:17;;;;;;;;;;;;;;;9.31;100.00;99574.06;6277967;22;19912;-90
2022/06/06 22:32:42;;;;;;;;;;;;;;;9.07;100.00;99574.97;6277093;22;19962;-92
2022/06/06 22:35:08;;;;;;;;;;;;;;;9.19;100.00;99573.63;6277918;22;19911;-92
2022/06/06 22:37:36;;;;;;;;;;;;;;;9.10;100.00;99571.34;6245060;23;19943;-91
2022/06/06 22:40:01;;;;;;;;;;;;;;;9.13;100.00;99571.25;6247864;22;19973;-95
2022/06/06 22:42:27;;;;;;;;;;;;;;;9.17;100.00;99566.69;6243926;22;20278;-88
2022/06/06 22:44:54;;;;;;;;;;;;;;;9.00;100.00;99570.00;6244462;22;19957;-90
2022/06/06 22:47:35;;;;;;;;;;;;;;;9.22;100.00;99562.94;6245314;22;19931;-91
2022/06/06 22:50:01;;;;;;;;;;;;;;;8.97;100.00;99565.72;6245238;22;19918;-89
2022/06/06 22:52:26;;;;;;;;;;;;;;;9.34;100.00;99566.00;6244970;22;19915;-89
2022/06/06 22:54:51;;;;;;;;;;;;;;;9.17;100.00;99564.88;6243497;22;20342;-91
2022/06/06 23:18:29;;;;;;;;;;;;;;;9.57;100.00;99565.91;6304072;22;19919;-91
2022/06/06 23:21:24;;;;;;;;;;;;;;;9.41;100.00;99559.53;6279708;22;19921;-93
